Flight Track Log - Related Links

Times and Time Zones

All times are in EDT time to prevent confusion due to time zone crossing. See the N119BJ flight status page for this flight to view local times or setup timezone preferences in your user account.

Time Position Orientation Groundspeed Altitude Reporting Facility
EDT Latitude Longitude Course Direction KTS MPH feet Rate Location/Type
Tue 10:09:45 AM 41.0833 -73.6667 56° Northeast 119 137 1,800  Level New York TRACON
Tue 10:10:45 AM 41.1000 -73.6333 56° Northeast 122 140 2,400 353 Climbing New York TRACON
Tue 10:11:44 AM 41.1000 -73.5833 90° East 140 161 2,500 403 Climbing New York TRACON
Tue 10:12:44 AM 41.1000 -73.5333 90° East 120 138 3,200 694 Climbing New York TRACON
Tue 10:13:45 AM 41.1000 -73.4833 90° East 118 136 3,900 694 Climbing New York TRACON
Tue 10:14:45 AM 41.1000 -73.4500 90° East 125 144 4,600 650 Climbing New York TRACON
Tue 10:15:45 AM 41.1167 -73.4000 66° East 127 146 5,200 700 Climbing New York TRACON
Tue 10:16:45 AM 41.1167 -73.3500 90° East 129 148 6,000 850 Climbing New York TRACON
Tue 10:17:45 AM 41.1167 -73.3000 90° East 119 137 6,900 800 Climbing New York TRACON
Tue 10:18:45 AM 41.1167 -73.2667 90° East 129 148 7,600 300 Climbing New York TRACON
Tue 10:19:45 AM 41.1167 -73.2000 90° East 155 178 7,500 -50 Descending New York TRACON
Tue 10:20:44 AM 41.1167 -73.1500 90° East 149 171 7,500  Level New York TRACON
Tue 10:21:44 AM 41.1333 -73.1000 66° East 145 167 7,500  Level New York TRACON
Tue 10:22:44 AM 41.1333 -73.0500 90° East 143 165 7,500  Level New York TRACON
Tue 10:23:39 AM 41.1333 -73.0000 90° East 145 167 7,500  Level New York TRACON
Tue 10:24:39 AM 41.1333 -72.9500 90° East 147 169 7,500  Level New York TRACON
Tue 10:25:39 AM 41.1333 -72.9000 90° East 143 165 7,500  Level New York TRACON
Tue 10:26:39 AM 41.1333 -72.8500 90° East 142 163 7,500  Level New York TRACON
Tue 10:27:33 AM 41.1500 -72.8000 66° East 146 168 7,500  Level New York TRACON
Tue 10:28:33 AM 41.1500 -72.7500 90° East 145 167 7,500  Level New York TRACON
Tue 10:29:33 AM 41.1500 -72.6833 90° East 151 174 7,500  Level New York TRACON
Tue 10:30:33 AM 41.1500 -72.6333 90° East 150 173 7,500  Level New York TRACON
Tue 10:31:33 AM 41.1500 -72.5833 90° East 153 176 7,500  Level New York TRACON
Tue 10:32:39 AM 41.1500 -72.5333 90° East 148 170 7,500  Level New York TRACON
Tue 10:33:33 AM 41.1667 -72.4667 72° East 148 170 7,500  Level New York TRACON
Tue 10:35:00 AM 41.1605 -72.3927 96° East  Level FlightAware Approximate
Tue 10:36:40 AM 41.1686 -72.3106 87° East 149 171 7,500  Level Boston Center
Tue 10:38:17 AM 41.1706 -72.2222 88° East 146 168 7,500  Level Boston Center
Tue 10:39:23 AM 41.1725 -72.1617 88° East 146 168 7,500  Level Boston Center
Tue 10:40:26 AM 41.1767 -72.1092 84° East 141 162 7,500  Level Boston Center
Tue 10:41:27 AM 41.1786 -72.0567 87° East 147 169 7,500  Level Boston Center
Tue 10:42:00 AM 41.1605 -72.0312 87° East  Level FlightAware Approximate
Tue 10:42:10 AM 41.1806 -72.0181 86° East 145 167 7,500  Level Boston Center
Tue 10:43:08 AM 41.1822 -71.9658 88° East 144 166 7,500  Level Boston Center
Tue 10:44:09 AM 41.1861 -71.9106 85° East 141 162 7,500  Level Boston Center
Tue 10:45:06 AM 41.1861 -71.8636 90° East 144 166 7,500  Level Boston Center
Tue 10:46:07 AM 41.1900 -71.8083 85° East 146 168 7,500  Level Boston Center
Tue 10:47:07 AM 41.1917 -71.7561 88° East 150 173 7,500  Level Boston Center
Tue 10:48:07 AM 41.1933 -71.7036 88° East 142 163 7,500  Level Boston Center
Tue 10:49:08 AM 41.1950 -71.6483 88° East 146 168 7,500  Level Boston Center
Tue 10:50:03 AM 41.1969 -71.5986 87° East 143 165 7,500  Level Boston Center
Tue 10:51:27 AM 41.2025 -71.5242 84° East 142 163 7,500  Level Boston Center
Tue 10:52:04 AM 41.2022 -71.4939 91° East 144 166 7,500  Level Boston Center
Tue 10:53:13 AM 41.2039 -71.4358 88° East 140 161 7,500  Level Boston Center
Tue 10:54:14 AM 41.2056 -71.3833 88° East 143 165 7,500  Level Boston Center
Tue 10:55:14 AM 41.2092 -71.3308 85° East 142 163 7,500  Level Boston Center
Tue 10:57:00 AM 41.2037 -71.2418 95° East  Level FlightAware Approximate
Tue 11:04:00 AM 41.2209 -70.8889 87° East  Level FlightAware Approximate
Tue 11:05:00 AM 41.2225 -70.8384 88° East  Level FlightAware Approximate
Tue 11:06:00 AM 41.2241 -70.7879 88° East  Level FlightAware Approximate
Tue 11:07:00 AM 41.2257 -70.7373 88° East  Level FlightAware Approximate
Tue 11:08:00 AM 41.2273 -70.6868 88° East  Level FlightAware Approximate
Tue 11:09:00 AM 41.2288 -70.6363 88° East  Level FlightAware Approximate
Tue 11:10:00 AM 41.2303 -70.5857 88° East  Level FlightAware Approximate
Tue 11:11:00 AM 41.2318 -70.5352 88° East  Level FlightAware Approximate
Tue 11:12:00 AM 41.2333 -70.4847 88° East  Level FlightAware Approximate
Tue 11:13:00 AM 41.2333 -70.4341 90° East  Level FlightAware Approximate
Tue 11:14:00 AM 41.2334 -70.3835 90° East  Level FlightAware Approximate
Tue 11:15:00 AM 41.2334 -70.3329 90° East  Level FlightAware Approximate
Tue 11:16:00 AM 41.2334 -70.2823 90° East  Level FlightAware Approximate
Tue 11:17:00 AM 41.2333 -70.2318 90° East  Level FlightAware Approximate
Tue 11:18:00 AM 41.2333 -70.1812 90° East  Level FlightAware Approximate
Tue 11:19:00 AM 41.2384 -70.1312 79° East  Level FlightAware Approximate
Tue 11:20:00 AM 41.2455 -70.0816 79° East  Level FlightAware Approximate
Tue 11:21:00 AM 41.2500 -70.0500 79° East  Level FlightAware Approximate
Tue 11:22:00 AM 41.2530 -70.0599 79° East  Level Estimated
Tue 11:23:00 AM 41.2530 -70.0599 79° East  Level Estimated
Tue 11:24:00 AM 41.2530 -70.0599 79° East  Level Estimated
Tue 11:25:00 AM 41.2530 -70.0599 79° East  Level Estimated
Tue 11:26:00 AM 41.2530 -70.0599 79° East  Level Estimated
Tue 11:27:00 AM 41.2530 -70.0599 79° East  Level Estimated
Tue 11:28:00 AM 41.2530 -70.0599 79° East  Level Estimated
Tue 11:29:00 AM 41.2530 -70.0599 79° East  Level Estimated
Tue 11:30:00 AM 41.2530 -70.0599 79° East  Level Estimated
Tue 11:31:00 AM 41.2530 -70.0599 79° East  Level Estimated

Login

Don't have an account? Register now (free) for customized features, flight alerts, and more!